createdAt,value
2022-11-06T00:00:12.344Z,2.70
2022-11-06T00:01:12.327Z,2.50
2022-11-06T00:02:17.455Z,2.50
2022-11-06T00:03:12.358Z,2.10
2022-11-06T00:04:12.327Z,2.70
2022-11-06T00:05:12.288Z,3.00
2022-11-06T00:06:12.296Z,2.80
2022-11-06T00:07:12.273Z,2.20
2022-11-06T00:08:12.663Z,2.80
2022-11-06T00:09:12.255Z,2.50
2022-11-06T00:10:12.243Z,2.90
2022-11-06T00:11:12.231Z,3.20
2022-11-06T00:12:12.219Z,2.50
2022-11-06T00:13:12.206Z,2.60
2022-11-06T00:14:12.215Z,3.30
2022-11-06T00:15:12.196Z,2.90
2022-11-06T00:16:12.180Z,2.80
2022-11-06T00:17:12.165Z,2.90
2022-11-06T00:18:12.393Z,2.30
2022-11-06T00:19:12.151Z,2.50
2022-11-06T00:20:12.185Z,3.20
2022-11-06T00:21:12.125Z,3.00
2022-11-06T00:22:12.113Z,2.50
2022-11-06T00:23:12.103Z,2.30
2022-11-06T00:24:12.093Z,2.20
2022-11-06T00:25:12.090Z,2.60
2022-11-06T00:26:12.088Z,2.80
2022-11-06T00:27:12.066Z,2.80
2022-11-06T00:28:12.262Z,2.80
2022-11-06T00:29:12.049Z,2.00
2022-11-06T00:30:12.253Z,2.60
2022-11-06T00:31:12.017Z,2.50
2022-11-06T00:32:12.009Z,2.60
2022-11-06T00:33:12.018Z,2.30
2022-11-06T00:34:11.997Z,2.60
2022-11-06T00:35:11.974Z,2.80
2022-11-06T00:36:11.970Z,2.40
2022-11-06T00:37:11.956Z,2.20
2022-11-06T00:38:12.212Z,2.30
2022-11-06T00:39:11.958Z,2.10
2022-11-06T00:40:11.942Z,2.40
2022-11-06T00:41:11.920Z,2.10
2022-11-06T00:42:12.342Z,2.90
2022-11-06T00:43:11.902Z,3.10
2022-11-06T00:44:11.883Z,2.60
2022-11-06T00:45:11.893Z,2.30
2022-11-06T00:46:11.868Z,2.20
2022-11-06T00:47:11.908Z,2.70
2022-11-06T00:48:12.167Z,2.40
2022-11-06T00:49:11.836Z,2.60
2022-11-06T00:50:11.828Z,2.60
2022-11-06T00:51:11.825Z,2.00
2022-11-06T00:52:11.813Z,2.30
2022-11-06T00:53:11.817Z,2.20
2022-11-06T00:54:11.810Z,2.40
2022-11-06T00:55:11.797Z,2.50
2022-11-06T00:56:11.770Z,2.60
2022-11-06T00:57:11.751Z,2.70
2022-11-06T00:58:12.063Z,2.50
2022-11-06T00:59:11.728Z,2.20
2022-11-06T01:00:11.727Z,2.60
2022-11-06T01:01:11.713Z,2.80
2022-11-06T01:02:11.845Z,3.20
2022-11-06T01:03:11.746Z,2.80
2022-11-06T01:04:11.680Z,3.00
2022-11-06T01:05:11.685Z,2.70
2022-11-06T01:06:11.662Z,2.10
2022-11-06T01:07:11.662Z,2.70
2022-11-06T01:08:12.067Z,2.80
2022-11-06T01:09:11.659Z,2.60
2022-11-06T01:10:11.639Z,2.80
2022-11-06T01:11:11.619Z,2.50
2022-11-06T01:12:13.589Z,2.70
2022-11-06T01:13:11.589Z,2.80
2022-11-06T01:14:11.596Z,2.40
2022-11-06T01:15:11.570Z,2.40
2022-11-06T01:16:11.563Z,2.80
2022-11-06T01:17:11.550Z,3.00
2022-11-06T01:18:11.948Z,2.30
2022-11-06T01:19:11.531Z,2.00
2022-11-06T01:20:11.521Z,2.10
2022-11-06T01:21:11.519Z,3.00
2022-11-06T01:22:11.546Z,2.90
2022-11-06T01:23:11.496Z,3.10
2022-11-06T01:24:11.532Z,2.40
2022-11-06T01:25:11.464Z,2.60
2022-11-06T01:26:11.450Z,2.20
2022-11-06T01:27:27.621Z,2.30
2022-11-06T01:28:11.790Z,2.60
2022-11-06T01:29:11.433Z,2.30
2022-11-06T01:30:11.424Z,2.60
2022-11-06T01:31:11.404Z,2.30
2022-11-06T01:32:11.395Z,2.20
2022-11-06T01:33:11.388Z,2.20
2022-11-06T01:34:11.380Z,2.20
2022-11-06T01:35:11.395Z,2.50
2022-11-06T01:36:11.357Z,2.20
2022-11-06T01:37:14.425Z,2.40
2022-11-06T01:38:11.632Z,2.10
2022-11-06T01:39:11.333Z,2.50
2022-11-06T01:40:11.322Z,3.00
2022-11-06T01:41:11.299Z,2.30
2022-11-06T01:42:11.308Z,2.50
2022-11-06T01:43:11.289Z,2.80
2022-11-06T01:44:11.285Z,2.00
2022-11-06T01:45:11.278Z,1.90
2022-11-06T01:46:11.263Z,2.50
2022-11-06T01:47:11.244Z,1.90
2022-11-06T01:48:11.547Z,2.10
2022-11-06T01:49:11.218Z,2.30
2022-11-06T01:50:11.205Z,2.20
2022-11-06T01:51:11.202Z,2.10
2022-11-06T01:52:11.221Z,2.60
2022-11-06T01:53:11.183Z,2.20
2022-11-06T01:54:11.170Z,2.40
2022-11-06T01:55:11.161Z,3.00
2022-11-06T01:56:11.148Z,2.60
2022-11-06T01:57:11.234Z,2.10
2022-11-06T01:58:11.403Z,2.40
2022-11-06T01:59:11.129Z,2.60
2022-11-06T02:00:11.115Z,2.20
2022-11-06T02:01:11.109Z,2.40
2022-11-06T02:02:14.346Z,1.90
2022-11-06T02:03:11.135Z,2.30
2022-11-06T02:04:11.109Z,2.90
2022-11-06T02:05:11.065Z,2.60
2022-11-06T02:06:11.050Z,2.70
2022-11-06T02:07:11.078Z,2.60
2022-11-06T02:08:11.362Z,2.90
2022-11-06T02:09:11.015Z,2.80
2022-11-06T02:10:11.006Z,2.70
2022-11-06T02:11:10.990Z,2.50
2022-11-06T02:12:10.988Z,2.50
2022-11-06T02:13:10.981Z,2.70
2022-11-06T02:14:10.959Z,2.60
2022-11-06T02:15:10.967Z,2.20
2022-11-06T02:16:10.963Z,2.30
2022-11-06T02:17:11.012Z,2.60
2022-11-06T02:18:11.222Z,2.60
2022-11-06T02:19:10.921Z,3.30
2022-11-06T02:20:10.908Z,2.80
2022-11-06T02:21:10.909Z,2.40
2022-11-06T02:22:10.945Z,3.20
2022-11-06T02:23:10.882Z,2.50
2022-11-06T02:24:10.855Z,3.00
2022-11-06T02:25:10.851Z,2.90
2022-11-06T02:26:10.835Z,2.50
2022-11-06T02:27:10.943Z,2.80
2022-11-06T02:28:11.111Z,3.10
2022-11-06T02:29:10.814Z,2.60
2022-11-06T02:30:10.801Z,2.70
2022-11-06T02:31:10.785Z,2.90
2022-11-06T02:32:10.837Z,2.60
2022-11-06T02:33:10.804Z,3.60
2022-11-06T02:34:10.762Z,2.90
2022-11-06T02:35:10.759Z,2.90
2022-11-06T02:36:10.739Z,2.90
2022-11-06T02:37:10.756Z,2.70
2022-11-06T02:38:11.114Z,3.60
2022-11-06T02:39:10.720Z,2.90
2022-11-06T02:40:10.695Z,2.70
2022-11-06T02:41:10.684Z,2.80
2022-11-06T02:42:10.762Z,2.50
2022-11-06T02:43:10.678Z,2.40
2022-11-06T02:44:10.670Z,3.60
2022-11-06T02:45:10.664Z,2.50
2022-11-06T02:46:10.635Z,2.80
2022-11-06T02:47:10.638Z,2.70
2022-11-06T02:48:11.117Z,2.50
2022-11-06T02:49:10.615Z,2.40
2022-11-06T02:50:10.607Z,2.30
2022-11-06T02:51:10.581Z,2.60
2022-11-06T02:52:10.609Z,3.40
2022-11-06T02:53:10.566Z,2.90
2022-11-06T02:54:10.548Z,2.60
2022-11-06T02:55:10.552Z,3.50
2022-11-06T02:56:10.539Z,2.90
2022-11-06T02:57:10.632Z,2.70
2022-11-06T02:58:10.862Z,2.90
2022-11-06T02:59:10.500Z,3.10
2022-11-06T03:00:10.484Z,3.20
2022-11-06T03:01:10.482Z,2.90
2022-11-06T03:02:10.751Z,3.20
2022-11-06T03:03:10.454Z,2.90
2022-11-06T03:04:10.454Z,2.80
2022-11-06T03:05:10.444Z,2.70
2022-11-06T03:06:10.433Z,3.00
2022-11-06T03:07:10.414Z,3.00
2022-11-06T03:08:10.729Z,2.70
2022-11-06T03:09:10.429Z,2.70
2022-11-06T03:10:10.405Z,2.70
2022-11-06T03:11:10.384Z,2.90
2022-11-06T03:12:10.382Z,2.70
2022-11-06T03:13:10.356Z,3.10
2022-11-06T03:14:10.363Z,3.50
2022-11-06T03:15:10.349Z,3.20
2022-11-06T03:16:10.336Z,3.20
2022-11-06T03:17:10.320Z,3.30
2022-11-06T03:18:10.554Z,2.40
2022-11-06T03:19:10.295Z,2.90
2022-11-06T03:20:10.313Z,2.90
2022-11-06T03:21:10.285Z,3.00
2022-11-06T03:22:10.264Z,2.80
2022-11-06T03:23:10.253Z,3.00
2022-11-06T03:24:10.241Z,2.80
2022-11-06T03:25:10.246Z,3.00
2022-11-06T03:26:10.224Z,3.60
2022-11-06T03:27:10.289Z,2.60
2022-11-06T03:28:10.482Z,2.80
2022-11-06T03:29:10.213Z,2.80
2022-11-06T03:30:15.411Z,3.40
2022-11-06T03:31:10.182Z,3.20
2022-11-06T03:32:10.356Z,2.60
2022-11-06T03:33:10.154Z,3.30
2022-11-06T03:34:10.171Z,3.30
2022-11-06T03:35:10.143Z,2.90
2022-11-06T03:36:10.133Z,3.60
2022-11-06T03:37:10.154Z,3.10
2022-11-06T03:38:10.365Z,3.10
2022-11-06T03:39:10.105Z,2.70
2022-11-06T03:40:10.093Z,3.00
2022-11-06T03:41:10.084Z,3.10
2022-11-06T03:42:10.095Z,3.40
2022-11-06T03:43:10.049Z,3.10
2022-11-06T03:44:10.044Z,3.10
2022-11-06T03:45:10.051Z,3.60
2022-11-06T03:46:10.014Z,3.40
2022-11-06T03:47:10.142Z,3.00
2022-11-06T03:48:10.213Z,3.00
2022-11-06T03:49:10.002Z,2.60
2022-11-06T03:50:09.997Z,3.00
2022-11-06T03:51:09.964Z,3.40
2022-11-06T03:52:10.097Z,3.40
2022-11-06T03:53:09.950Z,3.30
2022-11-06T03:54:09.927Z,2.90
2022-11-06T03:55:09.926Z,2.90
2022-11-06T03:56:09.924Z,2.80
2022-11-06T03:57:10.000Z,2.70
2022-11-06T03:58:10.068Z,3.00
2022-11-06T03:59:09.937Z,3.10
2022-11-06T04:00:09.884Z,3.20
2022-11-06T04:01:09.864Z,3.10
2022-11-06T04:02:10.011Z,2.90
2022-11-06T04:03:09.951Z,2.60
2022-11-06T04:04:09.852Z,2.70
2022-11-06T04:05:09.827Z,3.20
2022-11-06T04:06:09.820Z,2.80
2022-11-06T04:07:09.815Z,4.00
2022-11-06T04:08:10.007Z,2.60
2022-11-06T04:09:09.778Z,2.90
2022-11-06T04:10:09.767Z,3.10
2022-11-06T04:11:09.762Z,2.90
2022-11-06T04:12:09.740Z,2.50
2022-11-06T04:13:09.748Z,2.70
2022-11-06T04:14:09.723Z,3.10
2022-11-06T04:15:09.717Z,3.30
2022-11-06T04:16:09.714Z,2.90
2022-11-06T04:17:09.710Z,2.80
2022-11-06T04:18:09.973Z,3.10
2022-11-06T04:19:09.672Z,3.00
2022-11-06T04:20:09.669Z,2.90
2022-11-06T04:21:09.663Z,2.90
2022-11-06T04:22:09.646Z,3.10
2022-11-06T04:23:09.632Z,3.30
2022-11-06T04:24:09.619Z,2.70
2022-11-06T04:25:09.612Z,3.00
2022-11-06T04:26:09.618Z,3.30
2022-11-06T04:27:09.585Z,3.50
2022-11-06T04:28:09.714Z,3.10
2022-11-06T04:29:09.567Z,2.50
2022-11-06T04:30:09.561Z,2.70
2022-11-06T04:31:09.558Z,2.40
2022-11-06T04:32:09.549Z,3.30
2022-11-06T04:33:09.526Z,3.30
2022-11-06T04:34:09.525Z,3.00
2022-11-06T04:35:09.515Z,2.80
2022-11-06T04:36:09.495Z,3.10
2022-11-06T04:37:09.581Z,3.20
2022-11-06T04:38:09.488Z,2.80
2022-11-06T04:39:09.528Z,2.50
2022-11-06T04:40:09.462Z,2.90
2022-11-06T04:41:09.452Z,3.30
2022-11-06T04:42:09.441Z,3.30
2022-11-06T04:43:09.427Z,2.60
2022-11-06T04:44:09.423Z,2.80
2022-11-06T04:45:09.412Z,2.90
2022-11-06T04:46:09.409Z,3.00
2022-11-06T04:47:09.399Z,3.00
2022-11-06T04:48:09.376Z,2.70
2022-11-06T04:49:09.393Z,2.60
2022-11-06T04:50:09.363Z,2.80
2022-11-06T04:51:09.345Z,2.40
2022-11-06T04:52:09.337Z,3.00
2022-11-06T04:53:09.321Z,2.80
2022-11-06T04:54:09.325Z,2.70
2022-11-06T04:55:09.301Z,2.40
2022-11-06T04:56:09.290Z,2.20
2022-11-06T04:57:09.299Z,2.60
2022-11-06T04:58:09.277Z,2.50
2022-11-06T04:59:09.287Z,2.60
2022-11-06T05:00:09.252Z,2.60
2022-11-06T05:01:09.300Z,3.00
2022-11-06T05:02:09.283Z,3.10
2022-11-06T05:03:09.220Z,3.10
2022-11-06T05:04:09.210Z,3.50
2022-11-06T05:05:09.217Z,2.90
2022-11-06T05:06:09.205Z,3.10
2022-11-06T05:07:09.207Z,2.80
2022-11-06T05:08:09.176Z,2.90
2022-11-06T05:09:09.178Z,2.80
2022-11-06T05:10:09.149Z,2.60
2022-11-06T05:11:09.150Z,2.40
2022-11-06T05:12:09.126Z,3.20
2022-11-06T05:13:09.121Z,2.60
2022-11-06T05:14:09.111Z,2.70
2022-11-06T05:15:09.110Z,2.60
2022-11-06T05:16:09.105Z,2.40
2022-11-06T05:17:09.097Z,2.70
2022-11-06T05:18:09.088Z,2.30
2022-11-06T05:19:09.053Z,2.60
2022-11-06T05:20:09.062Z,2.90
2022-11-06T05:21:09.037Z,2.70
2022-11-06T05:22:09.033Z,2.70
2022-11-06T05:23:09.014Z,2.20
2022-11-06T05:24:09.005Z,2.80
2022-11-06T05:25:09.000Z,2.40
2022-11-06T05:26:08.995Z,2.70
2022-11-06T05:27:09.014Z,2.20
2022-11-06T05:28:08.995Z,2.50
2022-11-06T05:29:08.964Z,2.20
2022-11-06T05:30:08.956Z,2.10
2022-11-06T05:31:08.931Z,2.40
2022-11-06T05:32:08.938Z,2.60
2022-11-06T05:33:08.910Z,2.90
2022-11-06T05:34:08.906Z,3.10
2022-11-06T05:35:08.887Z,2.80
2022-11-06T05:36:08.888Z,2.70
2022-11-06T05:37:08.879Z,2.40
2022-11-06T05:38:08.872Z,2.50
2022-11-06T05:39:08.870Z,2.30
2022-11-06T05:40:08.851Z,2.60
2022-11-06T05:41:08.838Z,2.20
2022-11-06T05:42:08.827Z,2.00
2022-11-06T05:43:08.828Z,1.70
2022-11-06T05:44:08.746Z,2.00
2022-11-06T05:45:07.755Z,2.10
2022-11-06T05:46:23.847Z,2.00
2022-11-06T05:47:08.771Z,1.90
2022-11-06T05:48:08.781Z,2.00
2022-11-06T05:49:08.709Z,2.10
2022-11-06T05:50:08.685Z,1.70
2022-11-06T05:51:08.684Z,1.60
2022-11-06T05:52:08.725Z,1.50
2022-11-06T05:53:08.704Z,1.70
2022-11-06T05:54:08.662Z,2.40
2022-11-06T05:55:13.186Z,1.90
2022-11-06T05:56:08.629Z,2.00
2022-11-06T05:57:08.609Z,1.70
2022-11-06T05:58:08.598Z,2.10
2022-11-06T05:59:08.618Z,2.10
2022-11-06T06:00:08.591Z,1.90
2022-11-06T06:01:08.566Z,1.70
2022-11-06T06:02:08.661Z,2.20
2022-11-06T06:03:08.631Z,2.00
2022-11-06T06:04:08.559Z,1.70
2022-11-06T06:05:08.527Z,2.00
2022-11-06T06:06:08.522Z,1.90
2022-11-06T06:07:08.506Z,2.10
2022-11-06T06:08:08.508Z,2.00
2022-11-06T06:09:08.499Z,1.70
2022-11-06T06:10:08.494Z,1.80
2022-11-06T06:11:08.467Z,2.10
2022-11-06T06:12:08.476Z,2.60
2022-11-06T06:13:08.438Z,2.00
2022-11-06T06:14:08.438Z,2.00
2022-11-06T06:15:08.433Z,1.70
2022-11-06T06:16:08.434Z,1.70
2022-11-06T06:17:08.420Z,2.20
2022-11-06T06:18:08.401Z,1.90
2022-11-06T06:19:08.389Z,1.80
2022-11-06T06:20:08.374Z,1.80
2022-11-06T06:21:08.387Z,1.80
2022-11-06T06:22:08.359Z,1.40
2022-11-06T06:23:09.554Z,2.30
2022-11-06T06:24:08.337Z,1.50
2022-11-06T06:25:16.214Z,2.00
2022-11-06T06:26:08.319Z,2.50
2022-11-06T06:27:08.293Z,2.30
2022-11-06T06:28:08.296Z,2.20
2022-11-06T06:29:08.273Z,2.10
2022-11-06T06:30:08.265Z,1.80
2022-11-06T06:31:08.263Z,1.90
2022-11-06T06:32:08.245Z,2.20
2022-11-06T06:33:08.237Z,2.00
2022-11-06T06:34:08.235Z,2.20
2022-11-06T06:35:08.208Z,1.90
2022-11-06T06:36:08.231Z,1.80
2022-11-06T06:37:08.220Z,2.00
2022-11-06T06:38:08.181Z,2.20
2022-11-06T06:39:08.205Z,2.30
2022-11-06T06:40:08.161Z,2.00
2022-11-06T06:41:08.168Z,2.30
2022-11-06T06:42:08.138Z,2.50
2022-11-06T06:43:08.153Z,2.30
2022-11-06T06:44:08.128Z,2.40
2022-11-06T06:45:08.115Z,2.60
2022-11-06T06:46:08.098Z,2.10
2022-11-06T06:47:08.096Z,2.70
2022-11-06T06:48:08.079Z,2.00
2022-11-06T06:49:08.069Z,2.30
2022-11-06T06:50:08.064Z,2.40
2022-11-06T06:51:08.054Z,2.40
2022-11-06T06:52:08.032Z,2.60
2022-11-06T06:53:08.061Z,2.60
2022-11-06T06:54:08.034Z,2.20
2022-11-06T06:55:08.022Z,2.40
2022-11-06T06:56:08.028Z,2.40
2022-11-06T06:57:07.984Z,2.70
2022-11-06T06:58:08.102Z,2.40
2022-11-06T06:59:07.979Z,3.00
2022-11-06T07:00:07.953Z,2.70
2022-11-06T07:01:08.006Z,2.60
2022-11-06T07:02:08.032Z,1.90
2022-11-06T07:03:07.933Z,2.40
2022-11-06T07:04:07.905Z,2.30
2022-11-06T07:05:07.915Z,2.40
2022-11-06T07:06:07.931Z,2.40
2022-11-06T07:07:07.893Z,2.60
2022-11-06T07:08:07.872Z,2.80
2022-11-06T07:09:07.867Z,2.50
2022-11-06T07:10:07.844Z,2.30
2022-11-06T07:11:07.865Z,2.30
2022-11-06T07:12:07.830Z,2.10
2022-11-06T07:13:07.809Z,2.10
2022-11-06T07:14:07.813Z,2.10
2022-11-06T07:15:07.826Z,2.20
2022-11-06T07:16:07.785Z,2.10
2022-11-06T07:17:07.792Z,2.80
2022-11-06T07:18:07.820Z,2.60
2022-11-06T07:19:07.747Z,2.50
2022-11-06T07:20:08.477Z,2.80
2022-11-06T07:21:07.737Z,2.50
2022-11-06T07:22:07.807Z,3.00
2022-11-06T07:23:07.789Z,2.30
2022-11-06T07:24:07.722Z,2.30
2022-11-06T07:25:07.684Z,2.20
2022-11-06T07:26:07.679Z,2.50
2022-11-06T07:27:07.677Z,2.40
2022-11-06T07:28:07.721Z,2.60
2022-11-06T07:29:07.649Z,2.30
2022-11-06T07:30:07.660Z,1.80
2022-11-06T07:31:07.655Z,2.90
2022-11-06T07:32:07.613Z,2.40
2022-11-06T07:33:07.790Z,2.00
2022-11-06T07:34:07.594Z,2.20
2022-11-06T07:35:07.579Z,1.90
2022-11-06T07:36:07.594Z,2.20
2022-11-06T07:37:07.848Z,2.40
2022-11-06T07:38:07.789Z,2.60
2022-11-06T07:39:07.550Z,2.30
2022-11-06T07:40:07.550Z,2.10
2022-11-06T07:41:07.518Z,2.00
2022-11-06T07:42:07.516Z,2.10
2022-11-06T07:43:07.498Z,1.80
2022-11-06T07:44:07.529Z,1.90
2022-11-06T07:45:07.474Z,2.20
2022-11-06T07:46:07.473Z,1.80
2022-11-06T07:47:07.482Z,1.90
2022-11-06T07:48:07.453Z,2.50
2022-11-06T07:49:07.443Z,2.30
2022-11-06T07:50:07.470Z,2.30
2022-11-06T07:51:07.448Z,2.10
2022-11-06T07:52:07.406Z,2.20
2022-11-06T07:53:07.476Z,2.50
2022-11-06T07:54:07.394Z,2.30
2022-11-06T07:55:07.397Z,2.80
2022-11-06T07:56:07.417Z,1.90
2022-11-06T07:57:07.355Z,2.80
2022-11-06T07:58:07.353Z,2.30
2022-11-06T07:59:07.332Z,2.40
2022-11-06T08:00:07.331Z,2.10
2022-11-06T08:01:07.444Z,2.40
2022-11-06T08:02:07.549Z,2.90
2022-11-06T08:03:07.338Z,2.20
2022-11-06T08:04:07.326Z,2.60
2022-11-06T08:05:07.273Z,2.10
2022-11-06T08:06:07.260Z,2.60
2022-11-06T08:07:07.269Z,2.40
2022-11-06T08:08:07.251Z,3.10
2022-11-06T08:09:07.250Z,2.20
2022-11-06T08:10:07.252Z,2.20
2022-11-06T08:11:07.214Z,3.00
2022-11-06T08:12:07.201Z,3.00
2022-11-06T08:13:07.196Z,2.20
2022-11-06T08:14:07.217Z,2.80
2022-11-06T08:15:07.208Z,3.70
2022-11-06T08:16:07.161Z,2.70
2022-11-06T08:17:07.150Z,2.30
2022-11-06T08:18:07.142Z,2.80
2022-11-06T08:19:07.132Z,3.50
2022-11-06T08:20:07.147Z,2.90
2022-11-06T08:21:07.163Z,2.70
2022-11-06T08:22:07.102Z,2.60
2022-11-06T08:23:07.107Z,2.50
2022-11-06T08:24:07.084Z,2.90
2022-11-06T08:25:07.075Z,3.20
2022-11-06T08:26:07.802Z,2.80
2022-11-06T08:27:07.072Z,2.90
2022-11-06T08:28:07.044Z,3.10
2022-11-06T08:29:07.326Z,2.80
2022-11-06T08:30:07.019Z,2.30
2022-11-06T08:31:07.036Z,2.60
2022-11-06T08:32:06.996Z,2.90
2022-11-06T08:33:06.980Z,2.70
2022-11-06T08:34:06.975Z,3.10
2022-11-06T08:35:06.964Z,2.70
2022-11-06T08:36:06.999Z,2.60
2022-11-06T08:37:06.959Z,2.50
2022-11-06T08:38:06.957Z,2.90
2022-11-06T08:39:06.926Z,3.40
2022-11-06T08:40:06.934Z,2.70
2022-11-06T08:41:06.901Z,2.80
2022-11-06T08:42:06.935Z,2.70
2022-11-06T08:43:06.878Z,2.90
2022-11-06T08:44:06.879Z,3.10
2022-11-06T08:45:07.099Z,2.70
2022-11-06T08:46:06.850Z,3.10
2022-11-06T08:47:06.854Z,2.80
2022-11-06T08:48:06.841Z,2.80
2022-11-06T08:49:06.829Z,2.70
2022-11-06T08:50:06.826Z,2.70
2022-11-06T08:51:06.835Z,3.10
2022-11-06T08:52:06.836Z,2.70
2022-11-06T08:53:06.820Z,3.10
2022-11-06T08:54:06.881Z,2.90
2022-11-06T08:55:06.754Z,2.90
2022-11-06T08:56:06.744Z,2.40
2022-11-06T08:57:06.740Z,2.70
2022-11-06T08:58:06.885Z,2.90
2022-11-06T08:59:06.726Z,2.80
2022-11-06T09:00:06.712Z,2.70
2022-11-06T09:01:06.731Z,2.80
2022-11-06T09:02:06.860Z,3.20
2022-11-06T09:03:06.707Z,2.90
2022-11-06T09:04:06.661Z,2.70
2022-11-06T09:05:06.668Z,2.70
2022-11-06T09:06:06.645Z,3.00
2022-11-06T09:07:06.626Z,3.00
2022-11-06T09:08:06.648Z,2.80
2022-11-06T09:09:06.630Z,2.90
2022-11-06T09:10:06.599Z,2.50
2022-11-06T09:11:06.606Z,2.60
2022-11-06T09:12:06.575Z,2.60
2022-11-06T09:13:06.566Z,3.20
2022-11-06T09:14:06.594Z,2.70
2022-11-06T09:15:06.558Z,2.90
2022-11-06T09:16:09.015Z,2.90
2022-11-06T09:17:06.581Z,2.80
2022-11-06T09:18:06.509Z,2.50
2022-11-06T09:19:06.526Z,2.60
2022-11-06T09:20:06.510Z,2.60
2022-11-06T09:21:06.507Z,2.60
2022-11-06T09:22:06.480Z,3.10
2022-11-06T09:23:06.478Z,2.70
2022-11-06T09:24:06.507Z,3.00
2022-11-06T09:25:06.471Z,2.70
2022-11-06T09:26:06.441Z,3.30
2022-11-06T09:27:06.442Z,3.10
2022-11-06T09:28:06.550Z,2.60
2022-11-06T09:29:06.395Z,2.80
2022-11-06T09:30:06.386Z,2.70
2022-11-06T09:31:06.374Z,2.80
2022-11-06T09:32:06.370Z,2.50
2022-11-06T09:33:12.200Z,2.80
2022-11-06T09:34:06.357Z,2.70
2022-11-06T09:35:06.336Z,2.80
2022-11-06T09:36:06.480Z,3.30
2022-11-06T09:37:06.335Z,2.60
2022-11-06T09:38:06.304Z,2.40
2022-11-06T09:39:06.320Z,2.70
2022-11-06T09:40:06.851Z,3.00
2022-11-06T09:41:06.276Z,3.10
2022-11-06T09:42:06.264Z,3.00
2022-11-06T09:43:06.277Z,3.40
2022-11-06T09:44:06.605Z,3.30
2022-11-06T09:45:06.277Z,2.90
2022-11-06T09:46:06.227Z,2.80
2022-11-06T09:47:06.216Z,3.00
2022-11-06T09:48:06.244Z,2.70
2022-11-06T09:49:06.197Z,3.20
2022-11-06T09:50:06.197Z,3.00
2022-11-06T09:51:06.204Z,3.10
2022-11-06T09:52:06.162Z,3.00
2022-11-06T09:53:06.370Z,2.30
2022-11-06T09:54:06.168Z,3.80
2022-11-06T09:55:06.136Z,2.70
2022-11-06T09:56:06.166Z,2.90
2022-11-06T09:57:06.140Z,2.60
2022-11-06T09:58:06.116Z,2.90
2022-11-06T09:59:06.106Z,3.20
2022-11-06T10:00:06.135Z,2.90
2022-11-06T10:01:06.105Z,2.80
2022-11-06T10:02:06.145Z,3.20
2022-11-06T10:03:06.065Z,3.50
2022-11-06T10:04:06.071Z,3.20
2022-11-06T10:05:06.071Z,2.80
2022-11-06T10:06:06.074Z,3.20
2022-11-06T10:07:06.163Z,3.60
2022-11-06T10:08:05.987Z,2.80
2022-11-06T10:09:05.983Z,3.30
2022-11-06T10:10:05.998Z,3.00
2022-11-06T10:11:05.976Z,3.10
2022-11-06T10:12:05.962Z,3.30
2022-11-06T10:13:05.970Z,3.60
2022-11-06T10:14:05.941Z,3.00
2022-11-06T10:15:05.952Z,3.30
2022-11-06T10:16:05.906Z,3.60
2022-11-06T10:17:05.894Z,2.90
2022-11-06T10:18:05.949Z,2.80
2022-11-06T10:19:05.931Z,3.10
2022-11-06T10:20:05.888Z,3.60
2022-11-06T10:21:05.878Z,3.20
2022-11-06T10:22:05.865Z,3.10
2022-11-06T10:23:05.864Z,3.20
2022-11-06T10:24:05.824Z,3.10
2022-11-06T10:25:05.840Z,3.70
2022-11-06T10:26:05.823Z,3.50
2022-11-06T10:27:05.828Z,2.70
2022-11-06T10:28:05.828Z,3.40
2022-11-06T10:29:05.768Z,2.60
2022-11-06T10:30:05.774Z,3.40
2022-11-06T10:31:05.793Z,3.00
2022-11-06T10:32:05.766Z,3.20
2022-11-06T10:33:05.729Z,3.60
2022-11-06T10:34:05.734Z,2.80
2022-11-06T10:35:05.700Z,3.40
2022-11-06T10:36:05.685Z,3.00
2022-11-06T10:37:05.701Z,2.70
2022-11-06T10:38:05.711Z,3.60
2022-11-06T10:39:05.656Z,2.90
2022-11-06T10:40:05.668Z,3.80
2022-11-06T10:41:05.671Z,3.60
2022-11-06T10:42:05.630Z,3.60
2022-11-06T10:43:05.623Z,2.90
2022-11-06T10:44:05.665Z,3.10
2022-11-06T10:45:05.594Z,3.90
2022-11-06T10:46:05.591Z,3.20
2022-11-06T10:47:05.598Z,3.30
2022-11-06T10:48:05.562Z,3.10
2022-11-06T10:49:05.622Z,3.30
2022-11-06T10:50:05.545Z,3.30
2022-11-06T10:51:05.536Z,3.40
2022-11-06T10:52:05.525Z,3.20
2022-11-06T10:53:05.520Z,3.10
2022-11-06T10:54:05.511Z,4.00
2022-11-06T10:55:05.520Z,3.50
2022-11-06T10:56:10.636Z,3.50
2022-11-06T10:57:05.477Z,3.20
2022-11-06T10:58:05.459Z,2.70
2022-11-06T10:59:05.451Z,3.10
2022-11-06T11:00:05.440Z,3.60
2022-11-06T11:01:05.544Z,3.60
2022-11-06T11:02:05.594Z,3.30
2022-11-06T11:03:05.408Z,3.50
2022-11-06T11:04:05.398Z,4.10
2022-11-06T11:05:05.385Z,3.60
2022-11-06T11:06:05.371Z,3.50
2022-11-06T11:07:05.397Z,3.20
2022-11-06T11:08:05.354Z,3.40
2022-11-06T11:09:05.341Z,3.90
2022-11-06T11:10:05.332Z,3.50
2022-11-06T11:11:05.798Z,4.00
2022-11-06T11:12:05.311Z,3.90
2022-11-06T11:13:08.507Z,3.80
2022-11-06T11:14:05.288Z,3.80
2022-11-06T11:15:05.284Z,3.70
2022-11-06T11:16:05.270Z,3.90
2022-11-06T11:17:05.257Z,3.60
2022-11-06T11:18:05.279Z,3.90
2022-11-06T11:19:05.249Z,3.90
2022-11-06T11:20:05.239Z,3.50
2022-11-06T11:21:05.226Z,3.80
2022-11-06T11:22:05.212Z,3.70
2022-11-06T11:23:05.296Z,4.10
2022-11-06T11:24:05.209Z,3.60
2022-11-06T11:25:05.172Z,3.70
2022-11-06T11:26:05.162Z,3.90
2022-11-06T11:27:05.157Z,4.10
2022-11-06T11:28:05.247Z,3.70
2022-11-06T11:29:05.142Z,3.70
2022-11-06T11:30:05.145Z,4.10
2022-11-06T11:31:05.112Z,3.60
2022-11-06T11:32:05.096Z,4.10
2022-11-06T11:33:05.091Z,4.40
2022-11-06T11:34:05.103Z,4.30
2022-11-06T11:35:05.101Z,3.70
2022-11-06T11:36:05.065Z,4.00
2022-11-06T11:37:05.044Z,3.40
2022-11-06T11:38:05.031Z,3.80
2022-11-06T11:39:05.028Z,3.30
2022-11-06T11:40:07.470Z,3.90
2022-11-06T11:41:05.021Z,3.40
2022-11-06T11:42:04.990Z,3.80
2022-11-06T11:43:04.988Z,4.10
2022-11-06T11:44:04.967Z,4.10
2022-11-06T11:45:04.982Z,3.00
2022-11-06T11:46:04.958Z,3.50
2022-11-06T11:47:09.067Z,3.70
2022-11-06T11:48:04.927Z,4.00
2022-11-06T11:49:04.924Z,4.00
2022-11-06T11:50:04.934Z,3.30
2022-11-06T11:51:04.897Z,3.30
2022-11-06T11:52:04.890Z,3.10
2022-11-06T11:53:09.917Z,3.90
2022-11-06T11:54:04.874Z,3.60
2022-11-06T11:55:04.881Z,3.10
2022-11-06T11:56:04.888Z,3.80
2022-11-06T11:57:06.661Z,3.50
2022-11-06T11:58:04.828Z,3.20
2022-11-06T11:59:04.818Z,4.00
2022-11-06T12:00:04.804Z,3.00
2022-11-06T12:01:04.791Z,3.80
2022-11-06T12:02:04.975Z,3.60
2022-11-06T12:03:04.854Z,3.50
2022-11-06T12:04:04.757Z,3.20
2022-11-06T12:05:04.758Z,3.80
2022-11-06T12:06:04.774Z,3.20
2022-11-06T12:07:04.729Z,3.90
2022-11-06T12:08:04.724Z,3.40
2022-11-06T12:09:04.710Z,3.50
2022-11-06T12:10:04.694Z,3.50
2022-11-06T12:11:04.708Z,3.40
2022-11-06T12:12:04.683Z,4.00
2022-11-06T12:13:04.663Z,3.70
2022-11-06T12:14:04.665Z,3.70
2022-11-06T12:15:04.673Z,3.30
2022-11-06T12:16:04.638Z,3.20
2022-11-06T12:17:04.642Z,3.10
2022-11-06T12:18:04.609Z,3.20
2022-11-06T12:19:04.601Z,3.50
2022-11-06T12:20:04.945Z,3.20
2022-11-06T12:21:04.584Z,3.00
2022-11-06T12:22:04.662Z,3.80
2022-11-06T12:23:04.562Z,3.50
2022-11-06T12:24:04.590Z,3.30
2022-11-06T12:25:04.537Z,4.10
2022-11-06T12:26:04.544Z,3.50
2022-11-06T12:27:04.517Z,3.30
2022-11-06T12:28:04.514Z,3.40
2022-11-06T12:29:05.480Z,3.60
2022-11-06T12:30:04.491Z,3.90
2022-11-06T12:31:04.485Z,3.90
2022-11-06T12:32:04.464Z,3.40
2022-11-06T12:33:04.459Z,4.00
2022-11-06T12:34:06.472Z,3.70
2022-11-06T12:35:04.431Z,3.60
2022-11-06T12:36:04.512Z,2.80
2022-11-06T12:37:04.429Z,3.80
2022-11-06T12:38:04.406Z,3.00
2022-11-06T12:39:04.391Z,3.40
2022-11-06T12:40:04.381Z,3.90
2022-11-06T12:41:04.377Z,3.50
2022-11-06T12:42:04.361Z,3.00
2022-11-06T12:43:10.878Z,3.50
2022-11-06T12:44:04.334Z,3.40
2022-11-06T12:45:04.331Z,4.20
2022-11-06T12:46:04.310Z,3.40
2022-11-06T12:47:04.307Z,3.00
2022-11-06T12:48:04.301Z,3.50
2022-11-06T12:49:04.283Z,3.00
2022-11-06T12:50:04.273Z,3.30
2022-11-06T12:51:04.271Z,2.90
2022-11-06T12:52:04.250Z,3.50
2022-11-06T12:53:06.422Z,2.90
2022-11-06T12:54:04.237Z,2.80
2022-11-06T12:55:04.232Z,3.20
2022-11-06T12:56:04.214Z,3.20
2022-11-06T12:57:04.200Z,2.60
2022-11-06T12:58:04.190Z,3.30
2022-11-06T12:59:04.187Z,3.10
2022-11-06T13:00:04.171Z,3.00
2022-11-06T13:01:04.235Z,3.20
2022-11-06T13:02:04.266Z,3.20
2022-11-06T13:03:04.142Z,3.00
2022-11-06T13:04:04.135Z,3.20
2022-11-06T13:05:04.135Z,3.00
2022-11-06T13:06:06.006Z,3.50
2022-11-06T13:07:04.091Z,3.10
2022-11-06T13:08:04.079Z,2.80
2022-11-06T13:09:04.083Z,3.30
2022-11-06T13:10:04.067Z,3.20
2022-11-06T13:11:04.047Z,3.20
2022-11-06T13:12:04.039Z,2.50
2022-11-06T13:13:04.040Z,2.90
2022-11-06T13:14:04.026Z,3.20
2022-11-06T13:15:04.020Z,2.60
2022-11-06T13:16:04.021Z,2.50
2022-11-06T13:17:03.986Z,3.20
2022-11-06T13:18:03.973Z,3.00